Time;durP1;ratioP1;P1;durP2;ratioP2;P2;SDS_P1;SDS_P2;PMS_P1;PMS_P2;Temp;Humidity;BMP_temperature;BMP_pressure;BME280_temperature;BME280_humidity;BME280_pressure;Samples;Min_cycle;Max_cycle;Signal;HPM_P1;HPM_P2
2022/02/15 00:01:13;;;;;;;1999.90;999.90;;;;;;;4.17;50.38;100167.94;5022160;27;97397;-70
2022/02/15 00:03:41;;;;;;;1999.90;999.90;;;;;;;4.15;50.69;100172.25;5017359;27;99102;-70
2022/02/15 00:06:09;;;;;;;1999.90;999.90;;;;;;;4.15;50.57;100174.88;5009697;27;98604;-71
2022/02/15 00:08:38;;;;;;;1999.90;999.90;;;;;;;4.11;50.61;100183.53;5015476;27;97492;-70
2022/02/15 00:11:05;;;;;;;1999.90;999.90;;;;;;;4.07;50.64;100170.19;5029503;27;97901;-70
2022/02/15 00:13:33;;;;;;;1999.90;999.90;;;;;;;4.03;50.50;100173.53;5011688;27;98500;-70
2022/02/15 00:16:01;;;;;;;1999.90;999.90;;;;;;;4.00;50.93;100171.72;5014239;27;98110;-69
2022/02/15 00:18:28;;;;;;;1999.90;999.90;;;;;;;3.99;50.78;100162.00;5018134;27;98479;-70
2022/02/15 00:20:56;;;;;;;1999.90;999.90;;;;;;;3.99;50.79;100167.25;5018106;27;97403;-70
2022/02/15 00:23:24;;;;;;;1999.90;999.90;;;;;;;3.97;50.95;100168.94;5018154;27;98956;-70
2022/02/15 00:25:53;;;;;;;1999.90;999.90;;;;;;;3.92;51.17;100159.97;5017751;27;98962;-70
2022/02/15 00:28:21;;;;;;;1999.90;999.90;;;;;;;3.87;51.03;100171.16;4997071;27;97713;-70
2022/02/15 00:30:50;;;;;;;1999.90;999.90;;;;;;;3.83;50.93;100175.41;4997426;27;97050;-70
2022/02/15 00:33:18;;;;;;;1999.90;999.90;;;;;;;3.82;51.25;100168.38;5014985;27;97012;-70
2022/02/15 00:35:46;;;;;;;1999.90;999.90;;;;;;;3.77;51.51;100167.28;4999515;27;99406;-68
2022/02/15 00:38:14;;;;;;;1999.90;999.90;;;;;;;3.74;51.47;100175.06;5013590;27;98107;-70
2022/02/15 00:40:42;;;;;;;1999.90;999.90;;;;;;;3.73;51.43;100177.66;5019439;27;96863;-70
2022/02/15 00:43:11;;;;;;;1999.90;999.90;;;;;;;3.74;51.09;100180.34;5037143;27;98580;-70
2022/02/15 00:45:39;;;;;;;1999.90;999.90;;;;;;;3.75;51.29;100176.84;5021678;27;99039;-70
2022/02/15 00:48:06;;;;;;;1999.90;999.90;;;;;;;3.75;51.31;100181.25;5019279;27;98320;-70
2022/02/15 00:50:34;;;;;;;1999.90;999.90;;;;;;;3.76;51.20;100189.19;5019445;27;98617;-70
2022/02/15 00:53:02;;;;;;;1999.90;999.90;;;;;;;3.73;51.41;100189.03;5021419;27;98730;-70
2022/02/15 00:55:29;;;;;;;1999.90;999.90;;;;;;;3.71;51.38;100193.38;5017212;27;98590;-69
2022/02/15 00:57:57;;;;;;;1999.90;999.90;;;;;;;3.70;51.38;100196.81;5023402;28;97253;-70
2022/02/15 01:00:26;;;;;;;1999.90;999.90;;;;;;;3.69;51.19;100197.69;5017648;27;97760;-70
2022/02/15 01:02:54;;;;;;;1999.90;999.90;;;;;;;3.69;51.49;100197.69;5020178;27;97134;-69
2022/02/15 01:05:22;;;;;;;1999.90;999.90;;;;;;;3.69;51.54;100202.03;5017073;27;99719;-70
2022/02/15 01:07:49;;;;;;;1999.90;999.90;;;;;;;3.68;51.16;100201.13;5019851;27;98502;-71
2022/02/15 01:10:20;;;;;;;1999.90;999.90;;;;;;;3.67;51.26;100204.63;5021394;27;97500;-70
2022/02/15 01:12:49;;;;;;;1999.90;999.90;;;;;;;3.64;51.30;100199.16;5019683;27;98735;-71
2022/02/15 01:15:17;;;;;;;1999.90;999.90;;;;;;;3.61;51.20;100211.31;5019410;27;97781;-70
2022/02/15 01:17:47;;;;;;;1999.90;999.90;;;;;;;3.56;51.27;100203.25;5003083;28;98097;-71
2022/02/15 01:20:15;;;;;;;1999.90;999.90;;;;;;;3.57;51.32;100206.78;5002800;28;96883;-70
2022/02/15 01:22:43;;;;;;;1999.90;999.90;;;;;;;3.49;51.62;100206.47;5020287;27;98910;-70
2022/02/15 01:25:10;;;;;;;1999.90;999.90;;;;;;;3.46;51.58;100211.59;5018992;27;98750;-70
2022/02/15 01:27:38;;;;;;;1999.90;999.90;;;;;;;3.43;51.51;100208.84;5022507;28;99199;-70
2022/02/15 01:30:10;;;;;;;1999.90;999.90;;;;;;;3.40;52.04;100202.56;5017718;27;97025;-70
2022/02/15 01:32:38;;;;;;;1999.90;999.90;;;;;;;3.37;51.92;100208.59;5019713;28;98091;-71
2022/02/15 01:35:08;;;;;;;1999.90;999.90;;;;;;;3.33;52.05;100206.66;5016918;27;98806;-70
2022/02/15 01:37:36;;;;;;;1999.90;999.90;;;;;;;3.31;51.88;100210.09;5032253;27;98150;-70
2022/02/15 01:40:05;;;;;;;1999.90;999.90;;;;;;;3.28;51.83;100217.88;5013692;27;98648;-70
2022/02/15 01:42:33;;;;;;;1999.90;999.90;;;;;;;3.27;52.17;100216.97;5014065;27;98962;-70
2022/02/15 01:45:00;;;;;;;1999.90;999.90;;;;;;;3.27;52.17;100216.06;5019448;27;97531;-70
2022/02/15 01:47:30;;;;;;;1999.90;999.90;;;;;;;3.22;52.48;100213.25;5019465;27;97498;-70
2022/02/15 01:49:59;;;;;;;1999.90;999.90;;;;;;;3.16;51.90;100219.16;5003872;28;98039;-70
2022/02/15 01:52:29;;;;;;;1999.90;999.90;;;;;;;3.13;51.93;100212.88;5002767;28;100412;-71
2022/02/15 01:54:59;;;;;;;1999.90;999.90;;;;;;;3.09;52.09;100216.19;5017786;27;98479;-71
2022/02/15 01:57:27;;;;;;;1999.90;999.90;;;;;;;3.03;52.07;100208.97;5018058;27;98224;-70
2022/02/15 02:00:06;;;;;;;1999.90;999.90;;;;;;;3.00;52.52;100214.06;5003327;28;98886;-71
2022/02/15 02:02:45;;;;;;;1999.90;999.90;;;;;;;2.98;52.43;100209.59;5016700;27;98236;-71
2022/02/15 02:08:06;;;;;;;1999.90;999.90;;;;;;;2.88;52.17;100210.94;4997437;28;98843;-71
2022/02/15 02:10:39;;;;;;;1999.90;999.90;;;;;;;2.86;52.75;100209.97;5013591;27;97928;-70
2022/02/15 02:13:14;;;;;;;1999.90;999.90;;;;;;;2.84;52.39;100209.00;5016157;27;98105;-72
2022/02/15 02:15:44;;;;;;;1999.90;999.90;;;;;;;3.24;51.82;100211.56;4996496;28;97757;-71
2022/02/15 02:18:41;;;;;;;1999.90;999.90;;;;;;;3.03;52.24;100221.19;4978830;27;98352;-71
2022/02/15 02:21:11;;;;;;;1999.90;999.90;;;;;;;2.99;52.43;100220.16;5015963;27;97855;-71
2022/02/15 02:23:41;;;;;;;1999.90;999.90;;;;;;;2.95;52.50;100217.31;5014758;27;98964;-71
2022/02/15 02:26:16;;;;;;;1999.90;999.90;;;;;;;2.92;52.37;100218.13;5014857;27;99225;-72
2022/02/15 02:28:45;;;;;;;1999.90;999.90;;;;;;;2.90;52.00;100214.53;5032574;27;98009;-71
2022/02/15 02:31:14;;;;;;;1999.90;999.90;;;;;;;2.87;52.23;100218.75;5014365;27;97040;-71
2022/02/15 02:33:51;;;;;;;1999.90;999.90;;;;;;;3.23;51.67;100218.56;5032247;27;97266;-71
2022/02/15 02:36:20;;;;;;;1999.90;999.90;;;;;;;2.98;52.02;100228.00;5002419;28;100253;-71
2022/02/15 02:38:48;;;;;;;1999.90;999.90;;;;;;;2.91;52.08;100233.81;5000468;28;96848;-71
2022/02/15 02:41:17;;;;;;;1999.90;999.90;;;;;;;2.84;51.87;100235.28;5018717;27;98415;-71
2022/02/15 02:43:45;;;;;;;1999.90;999.90;;;;;;;2.81;52.11;100235.16;5019824;27;97268;-71
2022/02/15 02:46:14;;;;;;;1999.90;999.90;;;;;;;2.77;52.68;100237.56;5019652;27;98236;-71
2022/02/15 02:48:43;;;;;;;1999.90;999.90;;;;;;;2.70;52.50;100252.16;5022188;28;97216;-71
2022/02/15 02:51:10;;;;;;;1999.90;999.90;;;;;;;2.64;52.31;100253.63;5002390;28;98547;-71
2022/02/15 02:53:39;;;;;;;1999.90;999.90;;;;;;;2.55;52.73;100250.56;5002518;28;100740;-72
2022/02/15 02:56:07;;;;;;;1999.90;999.90;;;;;;;2.48;52.64;100252.03;5020365;27;97966;-71
2022/02/15 02:58:37;;;;;;;1999.90;999.90;;;;;;;2.47;53.14;100251.97;5019686;27;97963;-71
2022/02/15 03:01:05;;;;;;;1999.90;999.90;;;;;;;2.45;53.12;100251.00;5004067;28;98015;-70
2022/02/15 03:03:38;;;;;;;1999.90;999.90;;;;;;;2.88;51.99;100252.06;5012242;27;98998;-71
2022/02/15 03:06:07;;;;;;;1999.90;999.90;;;;;;;2.65;52.65;100258.06;4999177;28;97733;-71
2022/02/15 03:08:44;;;;;;;1999.90;999.90;;;;;;;2.59;52.76;100252.50;5017051;27;97575;-70
2022/02/15 03:11:12;;;;;;;1999.90;999.90;;;;;;;2.54;52.66;100248.78;5000718;28;98196;-70
2022/02/15 03:13:43;;;;;;;1999.90;999.90;;;;;;;2.52;52.99;100251.38;5001285;28;102133;-70
2022/02/15 03:16:25;;;;;;;1999.90;999.90;;;;;;;2.50;52.61;100254.75;5002574;28;99238;-71
2022/02/15 03:18:54;;;;;;;1999.90;999.90;;;;;;;2.48;53.01;100253.75;5017154;27;97923;-70
2022/02/15 03:21:23;;;;;;;1999.90;999.90;;;;;;;2.48;52.35;100259.03;5002518;28;99005;-70
2022/02/15 03:23:52;;;;;;;1999.90;999.90;;;;;;;2.45;52.59;100253.63;5015600;27;97487;-70
2022/02/15 03:26:20;;;;;;;1999.90;999.90;;;;;;;2.42;52.59;100262.25;5016974;27;97083;-71
2022/02/15 03:28:49;;;;;;;1999.90;999.90;;;;;;;2.42;52.64;100269.25;4996498;27;98499;-70
2022/02/15 03:31:19;;;;;;;1999.90;999.90;;;;;;;2.38;52.47;100264.69;5017505;27;99368;-70
2022/02/15 03:33:53;;;;;;;1999.90;999.90;;;;;;;2.33;52.30;100268.84;5017488;27;97906;-70
2022/02/15 03:36:20;;;;;;;1999.90;999.90;;;;;;;2.28;52.55;100268.63;5016266;27;98140;-69
2022/02/15 03:38:54;;;;;;;1999.90;999.90;;;;;;;2.26;53.12;100269.38;5000485;28;97694;-70
2022/02/15 03:44:29;;;;;;;1999.90;999.90;;;;;;;2.18;52.67;100275.16;4999488;28;100424;-70
2022/02/15 03:47:03;;;;;;;1999.90;999.90;;;;;;;2.15;52.89;100274.13;5000435;27;99245;-70
2022/02/15 03:49:35;;;;;;;1999.90;999.90;;;;;;;2.11;52.66;100274.81;4999009;27;97590;-70
2022/02/15 03:52:04;;;;;;;1999.90;999.90;;;;;;;2.09;53.06;100280.00;5014117;27;97385;-69
2022/02/15 03:54:34;;;;;;;1999.90;999.90;;;;;;;2.07;52.30;100281.59;5015443;27;105404;-71
2022/02/15 03:57:02;;;;;;;1999.90;999.90;;;;;;;2.06;53.54;100279.81;5017145;27;98989;-70
2022/02/15 03:59:31;;;;;;;1999.90;999.90;;;;;;;2.04;52.78;100276.22;5000390;28;98940;-70
2022/02/15 04:01:59;;;;;;;1999.90;999.90;;;;;;;2.03;52.70;100278.78;5019144;27;97188;-70
2022/02/15 04:04:29;;;;;;;1999.90;999.90;;;;;;;2.02;52.33;100277.88;5000172;28;98761;-71
2022/02/15 04:06:58;;;;;;;1999.90;999.90;;;;;;;2.01;52.89;100283.97;5016883;27;96922;-70
2022/02/15 04:09:26;;;;;;;1999.90;999.90;;;;;;;2.01;53.28;100289.22;5018269;27;97918;-70
2022/02/15 04:11:55;;;;;;;1999.90;999.90;;;;;;;2.00;53.02;100300.53;5013087;27;99152;-70
2022/02/15 04:14:28;;;;;;;1999.90;999.90;;;;;;;2.00;53.22;100305.75;5017155;27;99428;-70
2022/02/15 04:16:57;;;;;;;1999.90;999.90;;;;;;;2.00;53.29;100310.09;5016682;27;97547;-70
2022/02/15 04:19:25;;;;;;;1999.90;999.90;;;;;;;1.99;53.56;100309.22;5001088;28;97863;-70
2022/02/15 04:21:54;;;;;;;1999.90;999.90;;;;;;;2.36;51.88;100310.97;5016985;27;99408;-71
2022/02/15 04:24:22;;;;;;;1999.90;999.90;;;;;;;2.59;51.55;100315.53;5012489;27;97816;-70
2022/02/15 04:26:50;;;;;;;1999.90;999.90;;;;;;;2.25;52.66;100306.97;5032654;27;98620;-70
2022/02/15 04:29:20;;;;;;;1999.90;999.90;;;;;;;2.10;52.69;100307.13;5016387;27;98037;-70
2022/02/15 04:31:55;;;;;;;1999.90;999.90;;;;;;;2.00;52.68;100313.63;5014381;27;96795;-70
2022/02/15 04:34:25;;;;;;;1999.90;999.90;;;;;;;1.95;53.38;100322.09;5000885;28;101992;-70
2022/02/15 04:36:53;;;;;;;1999.90;999.90;;;;;;;2.34;52.05;100329.28;5012539;27;101156;-70
2022/02/15 04:39:21;;;;;;;1999.90;999.90;;;;;;;2.08;53.07;100335.91;5014378;27;97013;-70
2022/02/15 04:42:01;;;;;;;1999.90;999.90;;;;;;;2.01;52.94;100339.06;5017235;27;97921;-70
2022/02/15 04:44:30;;;;;;;1999.90;999.90;;;;;;;1.94;52.70;100338.69;5013036;27;97908;-70
2022/02/15 04:46:58;;;;;;;1999.90;999.90;;;;;;;1.90;52.82;100341.97;5015658;27;98893;-70
2022/02/15 04:49:27;;;;;;;1999.90;999.90;;;;;;;1.88;53.44;100357.66;5016457;27;99765;-69
2022/02/15 04:51:55;;;;;;;1999.90;999.90;;;;;;;1.84;53.19;100345.22;5016186;27;96894;-70
2022/02/15 04:54:23;;;;;;;1999.90;999.90;;;;;;;1.83;53.22;100353.00;4998908;27;100337;-70
2022/02/15 04:56:51;;;;;;;1999.90;999.90;;;;;;;1.82;52.86;100352.09;5015545;27;97798;-70
2022/02/15 04:59:20;;;;;;;1999.90;999.90;;;;;;;1.79;52.54;100362.47;4999503;28;97396;-70
2022/02/15 05:01:49;;;;;;;1999.90;999.90;;;;;;;1.77;52.89;100369.34;5014298;27;99138;-70
2022/02/15 05:07:08;;;;;;;1999.90;999.90;;;;;;;1.75;53.32;100372.69;4998283;28;97956;-70
2022/02/15 05:09:40;;;;;;;1999.90;999.90;;;;;;;1.75;53.38;100376.22;5013955;27;98323;-70
2022/02/15 05:12:10;;;;;;;1999.90;999.90;;;;;;;1.76;53.65;100377.16;5016315;27;97398;-71
2022/02/15 05:14:39;;;;;;;1999.90;999.90;;;;;;;1.75;52.96;100372.69;4997536;28;98828;-69
2022/02/15 05:17:10;;;;;;;1999.90;999.90;;;;;;;1.74;52.84;100384.94;4996761;27;99690;-70
2022/02/15 05:19:39;;;;;;;1999.90;999.90;;;;;;;1.72;53.55;100381.34;5015001;27;97858;-71
2022/02/15 05:22:08;;;;;;;1999.90;999.90;;;;;;;1.73;53.27;100379.59;5000525;28;96946;-71
2022/02/15 05:25:01;;;;;;;1999.90;999.90;;;;;;;1.74;53.11;100379.69;5012309;27;98550;-70
2022/02/15 05:27:30;;;;;;;1999.90;999.90;;;;;;;1.75;53.04;100376.22;5016558;27;97782;-70
2022/02/15 05:30:03;;;;;;;1999.90;999.90;;;;;;;1.77;53.37;100366.72;5015482;27;97053;-70
2022/02/15 05:33:02;;;;;;;1999.90;999.90;;;;;;;1.77;53.09;100374.59;5012768;27;98871;-70
2022/02/15 05:35:31;;;;;;;1999.90;999.90;;;;;;;1.78;53.36;100381.63;5013347;27;98566;-70
2022/02/15 05:37:59;;;;;;;1999.90;999.90;;;;;;;1.81;53.54;100384.41;5017526;27;98197;-70
2022/02/15 05:40:35;;;;;;;1999.90;999.90;;;;;;;1.86;53.44;100393.41;5032387;27;98192;-71
2022/02/15 05:43:11;;;;;;;1999.90;999.90;;;;;;;1.88;52.77;100407.50;5000853;28;97218;-69
2022/02/15 05:45:40;;;;;;;1999.90;999.90;;;;;;;1.84;53.33;100402.91;5016519;28;97677;-69
2022/02/15 05:48:19;;;;;;;1999.90;999.90;;;;;;;1.85;52.83;100401.22;5016645;27;98903;-69
2022/02/15 05:50:49;;;;;;;1999.90;999.90;;;;;;;1.86;53.00;100400.38;5019902;27;97067;-70
2022/02/15 05:53:23;;;;;;;1999.90;999.90;;;;;;;1.87;53.21;100402.19;5021670;27;97612;-69
2022/02/15 05:55:55;;;;;;;1999.90;999.90;;;;;;;1.86;52.99;100409.16;5016898;27;96910;-69
2022/02/15 05:58:28;;;;;;;1999.90;999.90;;;;;;;1.87;53.33;100405.69;5034613;27;98850;-71
2022/02/15 06:00:56;;;;;;;1999.90;999.90;;;;;;;1.89;53.14;100417.16;5020829;27;97769;-70
2022/02/15 06:06:15;;;;;;;1999.90;999.90;;;;;;;1.89;52.57;100419.78;5000117;28;99656;-70
2022/02/15 06:08:43;;;;;;;1999.90;999.90;;;;;;;1.90;53.09;100426.84;5010519;27;99270;-71
2022/02/15 06:11:11;;;;;;;1999.90;999.90;;;;;;;1.92;52.93;100425.19;5001644;28;99010;-72
2022/02/15 06:13:43;;;;;;;1999.90;999.90;;;;;;;1.93;53.40;100426.06;4996522;28;98286;-71
2022/02/15 06:16:13;;;;;;;1999.90;999.90;;;;;;;1.94;52.99;100423.56;5035549;27;100719;-71
2022/02/15 06:18:55;;;;;;;1999.90;999.90;;;;;;;1.93;53.17;100421.75;5018032;27;100317;-71
2022/02/15 06:21:27;;;;;;;1999.90;999.90;;;;;;;1.92;53.50;100425.19;5017814;27;99003;-71
2022/02/15 06:23:57;;;;;;;1999.90;999.90;;;;;;;1.93;52.87;100429.59;5018821;28;96919;-71
2022/02/15 06:26:48;;;;;;;1999.90;999.90;;;;;;;1.92;53.78;100425.19;4995650;28;99700;-73
2022/02/15 06:29:45;;;;;;;1999.90;999.90;;;;;;;1.91;52.93;100431.25;5018552;27;100779;-72
2022/02/15 06:32:25;;;;;;;1999.90;999.90;;;;;;;1.92;53.15;100426.91;5007081;28;98105;-72
2022/02/15 06:34:54;;;;;;;1999.90;999.90;;;;;;;1.93;53.01;100434.84;5037445;27;97173;-71
2022/02/15 06:37:22;;;;;;;1999.90;999.90;;;;;;;1.94;53.23;100431.44;5007214;28;98840;-71
2022/02/15 06:39:53;;;;;;;1999.90;999.90;;;;;;;1.95;52.87;100441.09;5007278;28;99227;-71
2022/02/15 06:42:23;;;;;;;1999.90;999.90;;;;;;;1.94;53.05;100441.00;5023336;27;96995;-71
2022/02/15 06:44:51;;;;;;;1999.90;999.90;;;;;;;1.91;52.85;100449.63;5023135;27;99097;-71
2022/02/15 06:47:25;;;;;;;1999.90;999.90;;;;;;;1.88;53.36;100446.84;5021383;27;99729;-71
2022/02/15 06:49:54;;;;;;;1999.90;999.90;;;;;;;1.86;52.94;100448.50;5022560;27;100650;-71
2022/02/15 06:52:39;;;;;;;1999.90;999.90;;;;;;;1.86;52.73;100453.75;5023311;27;97830;-71
2022/02/15 06:55:59;;;;;;;1999.90;999.90;;;;;;;1.80;54.10;100458.66;5001734;27;97119;-71
2022/02/15 06:58:29;;;;;;;1999.90;999.90;;;;;;;1.81;53.82;100457.88;5004690;27;101412;-70
2022/02/15 07:00:57;;;;;;;1999.90;999.90;;;;;;;1.78;53.82;100459.44;5021489;27;99307;-71
2022/02/15 07:03:25;;;;;;;1999.90;999.90;;;;;;;1.79;53.66;100471.72;5023226;28;96931;-70
2022/02/15 07:05:58;;;;;;;1999.90;999.90;;;;;;;1.80;53.05;100469.16;5004173;28;97526;-70
2022/02/15 07:08:27;;;;;;;1999.90;999.90;;;;;;;1.82;53.32;100471.84;5021939;27;97692;-72
2022/02/15 07:10:56;;;;;;;1999.90;999.90;;;;;;;1.83;53.11;100479.84;5017730;27;98316;-71
2022/02/15 07:13:28;;;;;;;1999.90;999.90;;;;;;;1.85;53.32;100477.28;5021405;27;96849;-71
2022/02/15 07:16:00;;;;;;;1999.90;999.90;;;;;;;1.87;53.24;100473.88;5017250;27;98142;-71
2022/02/15 07:18:29;;;;;;;1999.90;999.90;;;;;;;1.91;53.88;100482.81;5016348;27;97787;-70
2022/02/15 07:21:17;;;;;;;1999.90;999.90;;;;;;;1.92;52.72;100489.88;5019387;27;98712;-71
2022/02/15 07:24:04;;;;;;;1999.90;999.90;;;;;;;1.95;53.37;100493.56;5018609;27;97922;-70
2022/02/15 07:26:50;;;;;;;1999.90;999.90;;;;;;;1.96;53.62;100492.72;5020466;27;98871;-70
2022/02/15 07:29:32;;;;;;;1999.90;999.90;;;;;;;1.98;53.68;100485.81;5000886;27;102008;-71
2022/02/15 07:32:23;;;;;;;1999.90;999.90;;;;;;;2.01;53.24;100492.97;5015880;27;97274;-71
2022/02/15 07:34:52;;;;;;;1999.90;999.90;;;;;;;2.01;53.39;100488.63;5034517;27;99956;-71
2022/02/15 07:37:21;;;;;;;1999.90;999.90;;;;;;;2.03;53.18;100497.47;5017757;27;98586;-71
2022/02/15 07:39:49;;;;;;;1999.90;999.90;;;;;;;2.05;53.50;100503.69;5020658;27;98060;-71
2022/02/15 07:42:17;;;;;;;1999.90;999.90;;;;;;;2.06;53.28;100502.88;5018923;27;98254;-71
2022/02/15 07:44:46;;;;;;;1999.90;999.90;;;;;;;2.08;53.53;100506.47;5018060;27;98999;-71
2022/02/15 07:47:14;;;;;;;1999.90;999.90;;;;;;;2.09;52.52;100503.06;5014753;27;98342;-71
2022/02/15 07:49:43;;;;;;;1999.90;999.90;;;;;;;2.10;52.80;100497.00;5036641;27;98967;-72
2022/02/15 07:52:11;;;;;;;1999.90;999.90;;;;;;;2.13;52.77;100505.00;5021663;28;97870;-69
2022/02/15 07:54:41;;;;;;;1999.90;999.90;;;;;;;2.13;52.67;100504.09;5014547;27;97461;-69
2022/02/15 07:57:09;;;;;;;1999.90;999.90;;;;;;;2.12;52.71;100508.47;5017669;27;98137;-69
2022/02/15 07:59:36;;;;;;;1999.90;999.90;;;;;;;2.11;53.10;100509.28;5013843;27;97354;-71
2022/02/15 08:02:05;;;;;;;1999.90;999.90;;;;;;;2.12;53.51;100515.44;5020850;27;98117;-70
2022/02/15 08:04:32;;;;;;;1999.90;999.90;;;;;;;2.14;52.80;100508.53;5009571;27;99691;-70
2022/02/15 08:07:03;;;;;;;1999.90;999.90;;;;;;;2.17;52.93;100509.59;4999831;27;97780;-70
2022/02/15 08:09:31;;;;;;;1999.90;999.90;;;;;;;2.23;52.57;100518.59;5011938;27;98833;-68
2022/02/15 08:12:08;;;;;;;1999.90;999.90;;;;;;;2.28;52.71;100522.34;5020813;27;98730;-68
2022/02/15 08:14:36;;;;;;;1999.90;999.90;;;;;;;2.30;53.27;100525.94;5022647;28;99190;-68
2022/02/15 08:17:04;;;;;;;1999.90;999.90;;;;;;;2.33;52.65;100527.00;5016904;27;97452;-70
2022/02/15 08:19:32;;;;;;;1999.90;999.90;;;;;;;2.37;52.99;100528.03;5019694;27;97974;-69
2022/02/15 08:22:00;;;;;;;1999.90;999.90;;;;;;;2.41;52.78;100527.38;5020970;27;97120;-70
2022/02/15 08:24:29;;;;;;;1999.90;999.90;;;;;;;2.44;52.48;100530.19;5021563;28;98517;-68
2022/02/15 08:26:57;;;;;;;1999.90;999.90;;;;;;;2.46;52.73;100531.13;5017415;27;97399;-70
2022/02/15 08:29:26;;;;;;;1999.90;999.90;;;;;;;2.50;52.55;100538.34;5018044;27;98438;-67
2022/02/15 08:31:54;;;;;;;1999.90;999.90;;;;;;;2.54;52.46;100532.41;5015731;27;98002;-68
2022/02/15 08:34:22;;;;;;;1999.90;999.90;;;;;;;2.56;52.65;100529.06;5016786;27;98371;-68
2022/02/15 08:36:50;;;;;;;1999.90;999.90;;;;;;;2.59;52.30;100533.53;5014705;27;96930;-67
2022/02/15 08:39:18;;;;;;;1999.90;999.90;;;;;;;2.60;52.83;100540.59;5017038;27;99274;-69
2022/02/15 08:41:46;;;;;;;1999.90;999.90;;;;;;;2.61;52.13;100550.28;5014925;27;98780;-68
2022/02/15 08:44:13;;;;;;;1999.90;999.90;;;;;;;2.63;52.15;100553.88;5021531;27;96943;-68
2022/02/15 08:46:42;;;;;;;1999.90;999.90;;;;;;;2.65;52.36;100560.09;5004425;27;98691;-70
2022/02/15 08:49:10;;;;;;;1999.90;999.90;;;;;;;2.66;52.59;100562.81;5017932;27;98151;-68
2022/02/15 08:51:38;;;;;;;1999.90;999.90;;;;;;;2.70;52.50;100577.00;5016139;28;97626;-68
2022/02/15 08:54:07;;;;;;;1999.90;999.90;;;;;;;2.70;52.13;100570.03;5018811;28;97159;-68
2022/02/15 08:56:37;;;;;;;1999.90;999.90;;;;;;;2.72;52.92;100575.34;5015116;27;97177;-68
2022/02/15 08:59:05;;;;;;;1999.90;999.90;;;;;;;2.67;52.53;100576.84;5017684;27;99477;-68
2022/02/15 09:01:33;;;;;;;1999.90;999.90;;;;;;;2.68;52.65;100583.88;5016527;28;98327;-68
2022/02/15 09:04:02;;;;;;;1999.90;999.90;;;;;;;2.68;53.03;100576.91;5015298;27;96939;-68
2022/02/15 09:06:36;;;;;;;1999.90;999.90;;;;;;;2.69;52.59;100577.84;5015678;27;97436;-68
2022/02/15 09:09:04;;;;;;;1999.90;999.90;;;;;;;2.75;52.46;100572.84;5015431;27;99141;-68
2022/02/15 09:11:32;;;;;;;1999.90;999.90;;;;;;;2.77;52.51;100582.63;5013368;27;97641;-68
2022/02/15 09:14:00;;;;;;;1999.90;999.90;;;;;;;2.83;52.39;100584.66;5018283;27;99101;-67
2022/02/15 09:16:28;;;;;;;1999.90;999.90;;;;;;;2.84;52.11;100581.19;5015016;27;99056;-68
2022/02/15 09:18:56;;;;;;;1999.90;999.90;;;;;;;2.88;52.33;100575.25;5015922;27;98748;-67
2022/02/15 09:21:25;;;;;;;1999.90;999.90;;;;;;;2.89;52.91;100574.44;5016510;27;97837;-67
2022/02/15 09:23:53;;;;;;;1999.90;999.90;;;;;;;2.91;52.59;100571.03;5018528;28;97304;-68
2022/02/15 09:26:20;;;;;;;1999.90;999.90;;;;;;;2.91;52.63;100578.94;5019033;27;97083;-68
2022/02/15 09:28:48;;;;;;;1999.90;999.90;;;;;;;2.89;52.46;100571.81;5016459;27;97526;-67
2022/02/15 09:31:16;;;;;;;1999.90;999.90;;;;;;;2.90;52.72;100586.75;5016369;27;99771;-68
2022/02/15 09:33:46;;;;;;;1999.90;999.90;;;;;;;2.90;52.54;100582.41;5018772;27;97075;-67
2022/02/15 09:36:23;;;;;;;1999.90;999.90;;;;;;;2.90;52.31;100577.16;5017114;27;99913;-68
2022/02/15 09:38:54;;;;;;;1999.90;999.90;;;;;;;2.95;52.33;100585.22;5018069;27;98099;-68
2022/02/15 09:41:22;;;;;;;1999.90;999.90;;;;;;;2.97;52.08;100579.22;5018057;28;98916;-68
2022/02/15 09:43:50;;;;;;;1999.90;999.90;;;;;;;3.03;52.30;100589.16;5016715;27;98938;-68
2022/02/15 09:46:18;;;;;;;1999.90;999.90;;;;;;;3.06;51.99;100590.19;5015812;28;96803;-68
2022/02/15 09:48:46;;;;;;;1999.90;999.90;;;;;;;3.10;52.16;100593.84;5016526;28;98895;-69
2022/02/15 09:51:16;;;;;;;1999.90;999.90;;;;;;;3.11;51.97;100603.56;5015593;27;100232;-69
2022/02/15 09:53:44;;;;;;;1999.90;999.90;;;;;;;3.13;52.23;100604.53;5018876;28;97997;-69
2022/02/15 09:56:12;;;;;;;1999.90;999.90;;;;;;;3.14;51.88;100608.97;5003749;28;98938;-68
2022/02/15 09:58:41;;;;;;;1999.90;999.90;;;;;;;3.16;52.27;100610.84;5019611;27;100816;-68
2022/02/15 10:01:11;;;;;;;1999.90;999.90;;;;;;;3.17;52.28;100604.75;5021113;27;97448;-68
2022/02/15 10:03:47;;;;;;;1999.90;999.90;;;;;;;3.18;51.84;100600.41;5017666;27;97535;-69
2022/02/15 10:06:15;;;;;;;1999.90;999.90;;;;;;;3.21;52.25;100597.91;5018935;27;97506;-69
2022/02/15 10:08:42;;;;;;;1999.90;999.90;;;;;;;3.22;51.59;100610.25;5019804;28;98195;-69
2022/02/15 10:11:11;;;;;;;1999.90;999.90;;;;;;;3.23;52.28;100596.25;5021617;28;97865;-68
2022/02/15 10:13:44;;;;;;;1999.90;999.90;;;;;;;3.25;51.83;100602.50;5017645;27;96966;-68
2022/02/15 10:16:14;;;;;;;1999.90;999.90;;;;;;;3.27;51.76;100606.09;5041372;27;108449;-69
2022/02/15 10:18:44;;;;;;;1999.90;999.90;;;;;;;3.25;51.99;100607.75;5039977;27;97835;-68
2022/02/15 10:21:16;;;;;;;1999.90;999.90;;;;;;;3.23;52.01;100597.16;5016995;27;98908;-67
2022/02/15 10:23:44;;;;;;;1999.90;999.90;;;;;;;3.27;51.96;100594.66;5037653;27;97048;-68
2022/02/15 10:26:12;;;;;;;1999.90;999.90;;;;;;;3.27;52.09;100600.84;5022181;27;98138;-67
2022/02/15 10:28:39;;;;;;;1999.90;999.90;;;;;;;3.27;51.63;100597.28;5030719;27;100119;-67
2022/02/15 10:31:13;;;;;;;1999.90;999.90;;;;;;;3.29;51.71;100606.16;5013560;27;97824;-67
2022/02/15 10:33:45;;;;;;;1999.90;999.90;;;;;;;3.30;52.05;100603.59;5008729;27;98251;-68
2022/02/15 10:36:16;;;;;;;1999.90;999.90;;;;;;;3.29;51.65;100608.78;5031003;27;97807;-67
2022/02/15 10:38:47;;;;;;;1999.90;999.90;;;;;;;3.26;51.73;100611.28;5034475;27;98904;-68
2022/02/15 10:41:17;;;;;;;1999.90;999.90;;;;;;;3.23;51.98;100607.69;5003899;27;102291;-69
2022/02/15 10:43:47;;;;;;;1999.90;999.90;;;;;;;3.27;52.34;100611.34;5016231;27;98958;-69
2022/02/15 10:46:18;;;;;;;1999.90;999.90;;;;;;;3.28;51.92;100613.13;5016759;27;99567;-70
2022/02/15 10:48:46;;;;;;;1999.90;999.90;;;;;;;3.32;51.72;100612.47;5035267;27;98991;-69
2022/02/15 10:51:15;;;;;;;1999.90;999.90;;;;;;;3.34;52.18;100610.81;5029333;27;98337;-68
2022/02/15 10:53:59;;;;;;;1999.90;999.90;;;;;;;3.39;51.94;100622.44;5033037;27;99135;-68
2022/02/15 10:56:31;;;;;;;1999.90;999.90;;;;;;;3.43;51.78;100619.13;5032456;27;99161;-70
2022/02/15 10:59:01;;;;;;;1999.90;999.90;;;;;;;3.48;51.72;100614.97;5029400;27;97678;-69
2022/02/15 11:01:31;;;;;;;1999.90;999.90;;;;;;;3.54;51.71;100617.91;5026982;27;98636;-69
2022/02/15 11:03:59;;;;;;;1999.90;999.90;;;;;;;3.63;51.67;100618.31;5011168;27;99317;-68
2022/02/15 11:06:28;;;;;;;1999.90;999.90;;;;;;;3.70;51.45;100617.81;5017062;27;97275;-69
2022/02/15 11:08:57;;;;;;;1999.90;999.90;;;;;;;3.75;51.27;100608.38;5014484;27;97958;-68
2022/02/15 11:11:26;;;;;;;1999.90;999.90;;;;;;;3.81;51.42;100607.75;5028952;27;98085;-69
2022/02/15 11:13:54;;;;;;;1999.90;999.90;;;;;;;3.84;51.18;100618.44;5029430;27;97730;-69
2022/02/15 11:16:24;;;;;;;1999.90;999.90;;;;;;;3.85;51.34;100618.50;5010244;27;99211;-70
2022/02/15 11:18:53;;;;;;;1999.90;999.90;;;;;;;3.81;51.06;100623.56;5033742;27;99485;-69
2022/02/15 11:21:23;;;;;;;1999.90;999.90;;;;;;;3.80;51.07;100633.19;5022263;27;98883;-69